sensor_id;sensor_type;location;lat;lon;timestamp;pressure;altitude;pressure_sealevel;temperature;humidity
44313;BME280;38833;51.142;-0.974;2022-11-20T00:01:16;99597.75;;;24.76;30.27
44313;BME280;38833;51.142;-0.974;2022-11-20T00:03:51;99600.60;;;24.96;30.71
44313;BME280;38833;51.142;-0.974;2022-11-20T00:06:26;99597.25;;;24.62;30.72
44313;BME280;38833;51.142;-0.974;2022-11-20T00:09:00;99590.65;;;24.75;30.53
44313;BME280;38833;51.142;-0.974;2022-11-20T00:11:34;99592.79;;;24.72;30.79
44313;BME280;38833;51.142;-0.974;2022-11-20T00:14:08;99585.81;;;24.77;30.48
44313;BME280;38833;51.142;-0.974;2022-11-20T00:16:42;99582.86;;;24.51;30.87
44313;BME280;38833;51.142;-0.974;2022-11-20T00:19:15;99579.39;;;24.83;30.69
44313;BME280;38833;51.142;-0.974;2022-11-20T00:21:48;99574.44;;;24.74;30.47
44313;BME280;38833;51.142;-0.974;2022-11-20T00:24:22;99571.51;;;25.19;30.35
44313;BME280;38833;51.142;-0.974;2022-11-20T00:26:55;99567.66;;;25.16;30.33
44313;BME280;38833;51.142;-0.974;2022-11-20T00:29:28;99562.76;;;25.05;30.13
44313;BME280;38833;51.142;-0.974;2022-11-20T00:32:01;99558.16;;;25.36;29.97
44313;BME280;38833;51.142;-0.974;2022-11-20T00:34:34;99556.88;;;25.20;30.15
44313;BME280;38833;51.142;-0.974;2022-11-20T00:37:07;99551.59;;;25.19;29.82
44313;BME280;38833;51.142;-0.974;2022-11-20T00:39:41;99549.07;;;25.58;29.88
44313;BME280;38833;51.142;-0.974;2022-11-20T00:42:14;99549.52;;;25.23;30.26
44313;BME280;38833;51.142;-0.974;2022-11-20T00:44:47;99552.98;;;25.43;29.96
44313;BME280;38833;51.142;-0.974;2022-11-20T00:47:20;99549.24;;;25.26;30.12
44313;BME280;38833;51.142;-0.974;2022-11-20T00:49:53;99546.29;;;25.10;30.27
44313;BME280;38833;51.142;-0.974;2022-11-20T00:52:26;99539.99;;;25.23;30.08
44313;BME280;38833;51.142;-0.974;2022-11-20T00:55:00;99536.42;;;24.91;30.18
44313;BME280;38833;51.142;-0.974;2022-11-20T00:57:33;99532.71;;;25.01;30.02
44313;BME280;38833;51.142;-0.974;2022-11-20T01:00:07;99530.32;;;25.21;30.00
44313;BME280;38833;51.142;-0.974;2022-11-20T01:02:40;99528.83;;;24.99;30.24
44313;BME280;38833;51.142;-0.974;2022-11-20T01:05:13;99528.40;;;25.16;30.00
44313;BME280;38833;51.142;-0.974;2022-11-20T01:07:47;99525.18;;;24.91;30.23
44313;BME280;38833;51.142;-0.974;2022-11-20T01:10:20;99519.13;;;25.24;30.02
44313;BME280;38833;51.142;-0.974;2022-11-20T01:12:53;99516.28;;;24.74;30.27
44313;BME280;38833;51.142;-0.974;2022-11-20T01:15:26;99512.77;;;25.04;29.97
44313;BME280;38833;51.142;-0.974;2022-11-20T01:18:00;99508.86;;;24.88;30.10
44313;BME280;38833;51.142;-0.974;2022-11-20T01:20:34;99499.79;;;24.91;30.02
44313;BME280;38833;51.142;-0.974;2022-11-20T01:23:07;99495.04;;;24.93;29.94
44313;BME280;38833;51.142;-0.974;2022-11-20T01:25:41;99491.58;;;24.77;30.10
44313;BME280;38833;51.142;-0.974;2022-11-20T01:28:14;99490.21;;;24.91;30.11
44313;BME280;38833;51.142;-0.974;2022-11-20T01:30:47;99489.92;;;24.97;30.00
44313;BME280;38833;51.142;-0.974;2022-11-20T01:33:20;99480.55;;;24.89;30.04
44313;BME280;38833;51.142;-0.974;2022-11-20T01:36:02;99476.36;;;24.45;30.30
44313;BME280;38833;51.142;-0.974;2022-11-20T01:38:36;99471.32;;;24.40;30.26
44313;BME280;38833;51.142;-0.974;2022-11-20T01:41:11;99467.44;;;24.40;30.25
44313;BME280;38833;51.142;-0.974;2022-11-20T01:43:45;99464.27;;;24.77;30.06
44313;BME280;38833;51.142;-0.974;2022-11-20T01:46:19;99462.84;;;24.58;29.98
44313;BME280;38833;51.142;-0.974;2022-11-20T01:48:56;99460.90;;;24.69;30.07
44313;BME280;38833;51.142;-0.974;2022-11-20T01:51:35;99462.58;;;24.50;30.27
44313;BME280;38833;51.142;-0.974;2022-11-20T01:54:15;99461.45;;;24.76;29.94
44313;BME280;38833;51.142;-0.974;2022-11-20T01:56:52;99465.69;;;24.63;30.05
44313;BME280;38833;51.142;-0.974;2022-11-20T01:59:29;99470.32;;;24.28;30.16
44313;BME280;38833;51.142;-0.974;2022-11-20T02:02:03;99470.64;;;24.40;30.00
44313;BME280;38833;51.142;-0.974;2022-11-20T02:04:36;99470.72;;;24.45;30.15
44313;BME280;38833;51.142;-0.974;2022-11-20T02:07:09;99468.65;;;24.51;30.07
44313;BME280;38833;51.142;-0.974;2022-11-20T02:09:43;99467.08;;;24.42;30.13
44313;BME280;38833;51.142;-0.974;2022-11-20T02:12:16;99460.53;;;24.54;29.96
44313;BME280;38833;51.142;-0.974;2022-11-20T02:14:49;99457.51;;;24.35;30.17
44313;BME280;38833;51.142;-0.974;2022-11-20T02:17:23;99446.24;;;24.20;30.07
44313;BME280;38833;51.142;-0.974;2022-11-20T02:19:57;99441.65;;;24.37;30.09
44313;BME280;38833;51.142;-0.974;2022-11-20T02:22:33;99438.72;;;24.23;30.19
44313;BME280;38833;51.142;-0.974;2022-11-20T02:25:09;99431.97;;;24.56;30.13
44313;BME280;38833;51.142;-0.974;2022-11-20T02:27:43;99424.55;;;24.32;30.05
44313;BME280;38833;51.142;-0.974;2022-11-20T02:30:17;99415.47;;;24.24;30.13
44313;BME280;38833;51.142;-0.974;2022-11-20T02:32:50;99408.13;;;24.27;30.07
44313;BME280;38833;51.142;-0.974;2022-11-20T02:35:42;99401.77;;;24.21;30.10
44313;BME280;38833;51.142;-0.974;2022-11-20T02:38:15;99395.30;;;24.38;29.89
44313;BME280;38833;51.142;-0.974;2022-11-20T02:40:49;99389.19;;;24.14;29.87
44313;BME280;38833;51.142;-0.974;2022-11-20T02:43:22;99385.02;;;24.29;29.92
44313;BME280;38833;51.142;-0.974;2022-11-20T02:45:55;99380.19;;;24.45;29.75
44313;BME280;38833;51.142;-0.974;2022-11-20T02:48:28;99379.58;;;24.54;29.89
44313;BME280;38833;51.142;-0.974;2022-11-20T02:51:02;99383.79;;;24.19;29.99
44313;BME280;38833;51.142;-0.974;2022-11-20T02:53:35;99382.97;;;24.39;30.05
44313;BME280;38833;51.142;-0.974;2022-11-20T02:56:08;99382.56;;;24.00;30.14
44313;BME280;38833;51.142;-0.974;2022-11-20T02:58:41;99383.13;;;24.29;30.10
44313;BME280;38833;51.142;-0.974;2022-11-20T03:01:15;99379.80;;;24.02;30.08
44313;BME280;38833;51.142;-0.974;2022-11-20T03:03:48;99376.51;;;24.05;30.03
44313;BME280;38833;51.142;-0.974;2022-11-20T03:06:21;99374.61;;;24.02;30.00
44313;BME280;38833;51.142;-0.974;2022-11-20T03:08:54;99367.76;;;23.92;30.15
44313;BME280;38833;51.142;-0.974;2022-11-20T03:11:28;99359.78;;;24.00;29.99
44313;BME280;38833;51.142;-0.974;2022-11-20T03:14:02;99348.93;;;24.28;29.96
44313;BME280;38833;51.142;-0.974;2022-11-20T03:16:35;99343.73;;;24.21;30.01
44313;BME280;38833;51.142;-0.974;2022-11-20T03:19:08;99338.93;;;24.02;29.91
44313;BME280;38833;51.142;-0.974;2022-11-20T03:21:42;99333.68;;;24.02;29.89
44313;BME280;38833;51.142;-0.974;2022-11-20T03:24:15;99326.88;;;24.00;29.92
44313;BME280;38833;51.142;-0.974;2022-11-20T03:26:48;99327.36;;;23.91;29.96
44313;BME280;38833;51.142;-0.974;2022-11-20T03:29:21;99324.12;;;23.90;29.99
44313;BME280;38833;51.142;-0.974;2022-11-20T03:31:55;99319.03;;;23.84;30.04
44313;BME280;38833;51.142;-0.974;2022-11-20T03:34:28;99315.90;;;24.10;29.98
44313;BME280;38833;51.142;-0.974;2022-11-20T03:37:01;99312.74;;;23.83;30.00
44313;BME280;38833;51.142;-0.974;2022-11-20T03:39:34;99313.90;;;24.03;30.07
44313;BME280;38833;51.142;-0.974;2022-11-20T03:42:08;99310.25;;;24.01;30.07
44313;BME280;38833;51.142;-0.974;2022-11-20T03:44:42;99297.96;;;24.00;30.06
44313;BME280;38833;51.142;-0.974;2022-11-20T03:47:15;99285.83;;;23.92;30.14
44313;BME280;38833;51.142;-0.974;2022-11-20T03:49:48;99284.06;;;23.61;30.16
44313;BME280;38833;51.142;-0.974;2022-11-20T03:52:21;99278.07;;;23.68;30.07
44313;BME280;38833;51.142;-0.974;2022-11-20T03:54:54;99272.79;;;23.92;30.06
44313;BME280;38833;51.142;-0.974;2022-11-20T03:57:27;99270.73;;;23.88;30.16
44313;BME280;38833;51.142;-0.974;2022-11-20T04:00:01;99269.53;;;23.75;30.25
44313;BME280;38833;51.142;-0.974;2022-11-20T04:02:34;99266.11;;;23.86;30.06
44313;BME280;38833;51.142;-0.974;2022-11-20T04:05:08;99267.35;;;24.06;29.85
44313;BME280;38833;51.142;-0.974;2022-11-20T04:07:41;99258.18;;;24.16;29.78
44313;BME280;38833;51.142;-0.974;2022-11-20T04:10:14;99256.62;;;23.56;30.40
44313;BME280;38833;51.142;-0.974;2022-11-20T04:12:47;99253.41;;;23.67;30.21
44313;BME280;38833;51.142;-0.974;2022-11-20T04:15:20;99247.85;;;23.60;30.00
44313;BME280;38833;51.142;-0.974;2022-11-20T04:17:55;99243.36;;;23.84;30.00
44313;BME280;38833;51.142;-0.974;2022-11-20T04:20:28;99245.05;;;23.77;30.06
44313;BME280;38833;51.142;-0.974;2022-11-20T04:23:01;99242.86;;;23.70;30.14
44313;BME280;38833;51.142;-0.974;2022-11-20T04:25:34;99238.33;;;23.51;30.33
44313;BME280;38833;51.142;-0.974;2022-11-20T04:28:07;99229.60;;;23.54;29.98
44313;BME280;38833;51.142;-0.974;2022-11-20T04:30:40;99227.49;;;23.84;29.92
44313;BME280;38833;51.142;-0.974;2022-11-20T04:33:14;99227.70;;;23.56;29.91
44313;BME280;38833;51.142;-0.974;2022-11-20T04:35:48;99221.38;;;23.79;29.93
44313;BME280;38833;51.142;-0.974;2022-11-20T04:38:21;99216.91;;;23.45;30.00
44313;BME280;38833;51.142;-0.974;2022-11-20T04:40:57;99214.03;;;23.88;29.81
44313;BME280;38833;51.142;-0.974;2022-11-20T04:43:31;99210.70;;;23.85;29.81
44313;BME280;38833;51.142;-0.974;2022-11-20T04:46:04;99205.99;;;23.89;29.74
44313;BME280;38833;51.142;-0.974;2022-11-20T04:48:38;99202.43;;;23.90;29.70
44313;BME280;38833;51.142;-0.974;2022-11-20T04:51:11;99196.42;;;23.56;30.09
44313;BME280;38833;51.142;-0.974;2022-11-20T04:53:44;99196.65;;;23.82;29.74
44313;BME280;38833;51.142;-0.974;2022-11-20T04:56:17;99193.96;;;23.82;29.76
44313;BME280;38833;51.142;-0.974;2022-11-20T04:58:51;99187.34;;;23.74;29.82
44313;BME280;38833;51.142;-0.974;2022-11-20T05:02:26;99181.36;;;23.87;29.93
44313;BME280;38833;51.142;-0.974;2022-11-20T05:04:59;99178.57;;;23.71;29.81
44313;BME280;38833;51.142;-0.974;2022-11-20T05:07:32;99171.82;;;23.91;29.57
44313;BME280;38833;51.142;-0.974;2022-11-20T05:10:06;99169.17;;;23.60;29.90
44313;BME280;38833;51.142;-0.974;2022-11-20T05:12:40;99170.62;;;23.49;30.02
44313;BME280;38833;51.142;-0.974;2022-11-20T05:15:13;99166.08;;;23.59;29.90
44313;BME280;38833;51.142;-0.974;2022-11-20T05:17:47;99160.85;;;23.53;29.99
44313;BME280;38833;51.142;-0.974;2022-11-20T05:20:21;99155.09;;;23.57;29.92
44313;BME280;38833;51.142;-0.974;2022-11-20T05:22:56;99152.56;;;23.44;30.02
44313;BME280;38833;51.142;-0.974;2022-11-20T05:25:29;99151.70;;;23.36;30.15
44313;BME280;38833;51.142;-0.974;2022-11-20T05:28:03;99144.06;;;23.26;30.20
44313;BME280;38833;51.142;-0.974;2022-11-20T05:30:36;99138.70;;;23.51;29.95
44313;BME280;38833;51.142;-0.974;2022-11-20T05:33:09;99135.08;;;23.44;30.01
44313;BME280;38833;51.142;-0.974;2022-11-20T05:35:43;99129.82;;;23.54;30.11
44313;BME280;38833;51.142;-0.974;2022-11-20T05:38:16;99125.63;;;23.33;30.10
44313;BME280;38833;51.142;-0.974;2022-11-20T05:40:49;99124.18;;;23.33;30.07
44313;BME280;38833;51.142;-0.974;2022-11-20T05:43:22;99119.74;;;23.39;29.98
44313;BME280;38833;51.142;-0.974;2022-11-20T05:45:55;99114.32;;;23.41;30.20
44313;BME280;38833;51.142;-0.974;2022-11-20T05:48:29;99108.44;;;23.23;30.15
44313;BME280;38833;51.142;-0.974;2022-11-20T05:51:04;99104.18;;;23.37;29.96
44313;BME280;38833;51.142;-0.974;2022-11-20T05:53:38;99099.21;;;23.30;30.03
44313;BME280;38833;51.142;-0.974;2022-11-20T05:56:13;99100.13;;;23.43;30.13
44313;BME280;38833;51.142;-0.974;2022-11-20T05:58:48;99094.65;;;23.46;30.09
44313;BME280;38833;51.142;-0.974;2022-11-20T06:01:23;99086.72;;;23.49;30.03
44313;BME280;38833;51.142;-0.974;2022-11-20T06:03:56;99088.44;;;23.21;30.10
44313;BME280;38833;51.142;-0.974;2022-11-20T06:06:29;99087.41;;;23.58;29.92
44313;BME280;38833;51.142;-0.974;2022-11-20T06:09:03;99080.38;;;23.21;30.04
44313;BME280;38833;51.142;-0.974;2022-11-20T06:11:36;99076.78;;;23.53;29.96
44313;BME280;38833;51.142;-0.974;2022-11-20T06:14:09;99074.58;;;23.03;29.96
44313;BME280;38833;51.142;-0.974;2022-11-20T06:16:42;99084.94;;;23.31;29.93
44313;BME280;38833;51.142;-0.974;2022-11-20T06:19:16;99127.31;;;23.88;29.80
44313;BME280;38833;51.142;-0.974;2022-11-20T06:21:49;99128.00;;;23.73;29.94
44313;BME280;38833;51.142;-0.974;2022-11-20T06:24:22;99126.22;;;23.14;30.09
44313;BME280;38833;51.142;-0.974;2022-11-20T06:26:56;99123.79;;;23.42;30.02
44313;BME280;38833;51.142;-0.974;2022-11-20T06:29:29;99124.16;;;23.22;30.00
44313;BME280;38833;51.142;-0.974;2022-11-20T06:32:02;99122.58;;;23.21;30.27
44313;BME280;38833;51.142;-0.974;2022-11-20T06:34:35;99126.06;;;22.70;30.81
44313;BME280;38833;51.142;-0.974;2022-11-20T06:37:09;99127.99;;;22.37;31.57
44313;BME280;38833;51.142;-0.974;2022-11-20T06:39:42;99127.50;;;22.17;31.28
44313;BME280;38833;51.142;-0.974;2022-11-20T06:42:15;99130.28;;;22.00;31.58
44313;BME280;38833;51.142;-0.974;2022-11-20T06:44:48;99131.79;;;22.46;31.42
44313;BME280;38833;51.142;-0.974;2022-11-20T06:47:21;99132.75;;;22.48;31.26
44313;BME280;38833;51.142;-0.974;2022-11-20T06:49:55;99130.89;;;22.61;31.23
44313;BME280;38833;51.142;-0.974;2022-11-20T06:52:28;99125.47;;;23.05;30.82
44313;BME280;38833;51.142;-0.974;2022-11-20T06:55:01;99123.07;;;23.05;30.62
44313;BME280;38833;51.142;-0.974;2022-11-20T06:57:34;99126.16;;;23.05;30.81
44313;BME280;38833;51.142;-0.974;2022-11-20T07:00:08;99133.27;;;23.42;30.85
44313;BME280;38833;51.142;-0.974;2022-11-20T07:02:42;99136.72;;;23.46;31.00
44313;BME280;38833;51.142;-0.974;2022-11-20T07:05:15;99134.23;;;23.68;30.90
44313;BME280;38833;51.142;-0.974;2022-11-20T07:07:49;99132.86;;;23.78;30.94
44313;BME280;38833;51.142;-0.974;2022-11-20T07:10:22;99135.89;;;23.85;31.00
44313;BME280;38833;51.142;-0.974;2022-11-20T07:12:55;99136.83;;;23.69;31.04
44313;BME280;38833;51.142;-0.974;2022-11-20T07:15:28;99139.46;;;23.81;31.06
44313;BME280;38833;51.142;-0.974;2022-11-20T07:18:02;99137.66;;;23.83;31.15
44313;BME280;38833;51.142;-0.974;2022-11-20T07:20:35;99142.61;;;24.00;31.03
44313;BME280;38833;51.142;-0.974;2022-11-20T07:23:08;99141.35;;;23.90;31.29
44313;BME280;38833;51.142;-0.974;2022-11-20T07:25:41;99145.49;;;24.00;31.27
44313;BME280;38833;51.142;-0.974;2022-11-20T07:28:15;99148.19;;;23.80;31.59
44313;BME280;38833;51.142;-0.974;2022-11-20T07:30:50;99151.59;;;23.78;31.42
44313;BME280;38833;51.142;-0.974;2022-11-20T07:33:23;99152.35;;;23.83;31.44
44313;BME280;38833;51.142;-0.974;2022-11-20T07:35:58;99150.46;;;23.51;31.60
44313;BME280;38833;51.142;-0.974;2022-11-20T07:38:32;99155.00;;;23.53;31.63
44313;BME280;38833;51.142;-0.974;2022-11-20T07:41:05;99160.81;;;23.85;31.54
44313;BME280;38833;51.142;-0.974;2022-11-20T07:43:38;99167.70;;;23.84;31.62
44313;BME280;38833;51.142;-0.974;2022-11-20T07:46:11;99172.84;;;23.63;31.87
44313;BME280;38833;51.142;-0.974;2022-11-20T07:48:44;99170.58;;;23.74;31.80
44313;BME280;38833;51.142;-0.974;2022-11-20T07:51:18;99177.22;;;23.63;31.99
44313;BME280;38833;51.142;-0.974;2022-11-20T07:53:53;99184.94;;;23.54;32.12
44313;BME280;38833;51.142;-0.974;2022-11-20T07:56:26;99193.95;;;23.47;32.23
44313;BME280;38833;51.142;-0.974;2022-11-20T07:58:59;99196.49;;;23.14;32.63
44313;BME280;38833;51.142;-0.974;2022-11-20T08:01:32;99204.27;;;23.53;32.19
44313;BME280;38833;51.142;-0.974;2022-11-20T08:04:06;99212.10;;;23.32;32.45
44313;BME280;38833;51.142;-0.974;2022-11-20T08:06:39;99220.87;;;23.52;32.23
44313;BME280;38833;51.142;-0.974;2022-11-20T08:09:12;99226.26;;;23.41;32.34
44313;BME280;38833;51.142;-0.974;2022-11-20T08:11:45;99224.27;;;23.64;32.08
44313;BME280;38833;51.142;-0.974;2022-11-20T08:14:19;99224.10;;;23.84;31.80
44313;BME280;38833;51.142;-0.974;2022-11-20T08:16:52;99219.62;;;23.65;32.03
44313;BME280;38833;51.142;-0.974;2022-11-20T08:19:25;99217.30;;;23.85;31.47
44313;BME280;38833;51.142;-0.974;2022-11-20T08:21:58;99222.15;;;24.35;30.87
44313;BME280;38833;51.142;-0.974;2022-11-20T08:24:31;99232.29;;;24.79;30.59
44313;BME280;38833;51.142;-0.974;2022-11-20T08:27:05;99235.03;;;24.19;30.68
44313;BME280;38833;51.142;-0.974;2022-11-20T08:29:38;99226.77;;;24.70;30.64
44313;BME280;38833;51.142;-0.974;2022-11-20T08:32:11;99227.93;;;24.48;30.59
44313;BME280;38833;51.142;-0.974;2022-11-20T08:34:44;99230.35;;;24.44;30.60
44313;BME280;38833;51.142;-0.974;2022-11-20T08:37:18;99230.53;;;24.58;30.43
44313;BME280;38833;51.142;-0.974;2022-11-20T08:39:51;99228.10;;;24.58;30.42
44313;BME280;38833;51.142;-0.974;2022-11-20T08:42:24;99237.38;;;24.84;30.34
44313;BME280;38833;51.142;-0.974;2022-11-20T08:44:57;99231.81;;;24.48;30.47
44313;BME280;38833;51.142;-0.974;2022-11-20T08:47:30;99240.80;;;24.49;30.46
44313;BME280;38833;51.142;-0.974;2022-11-20T08:50:04;99244.07;;;24.27;30.67
44313;BME280;38833;51.142;-0.974;2022-11-20T08:52:37;99251.45;;;24.68;30.18
44313;BME280;38833;51.142;-0.974;2022-11-20T08:55:11;99261.16;;;24.05;30.50
44313;BME280;38833;51.142;-0.974;2022-11-20T08:57:44;99265.26;;;24.61;30.18
44313;BME280;38833;51.142;-0.974;2022-11-20T09:00:18;99274.75;;;24.37;30.41
44313;BME280;38833;51.142;-0.974;2022-11-20T09:02:51;99280.02;;;24.30;30.18
44313;BME280;38833;51.142;-0.974;2022-11-20T09:05:24;99290.54;;;24.65;29.68
44313;BME280;38833;51.142;-0.974;2022-11-20T09:07:58;99292.88;;;24.21;30.49
44313;BME280;38833;51.142;-0.974;2022-11-20T09:10:31;99303.79;;;23.82;30.89
44313;BME280;38833;51.142;-0.974;2022-11-20T09:13:05;99299.35;;;23.61;31.12
44313;BME280;38833;51.142;-0.974;2022-11-20T09:15:38;99304.99;;;23.73;31.20
44313;BME280;38833;51.142;-0.974;2022-11-20T09:18:11;99301.05;;;23.33;31.39
44313;BME280;38833;51.142;-0.974;2022-11-20T09:20:44;99292.01;;;23.54;31.37
44313;BME280;38833;51.142;-0.974;2022-11-20T09:23:18;99288.79;;;23.30;31.61
44313;BME280;38833;51.142;-0.974;2022-11-20T09:25:51;99291.29;;;23.30;31.58
44313;BME280;38833;51.142;-0.974;2022-11-20T09:28:24;99295.56;;;23.10;31.76
44313;BME280;38833;51.142;-0.974;2022-11-20T09:30:57;99294.17;;;23.02;31.81
44313;BME280;38833;51.142;-0.974;2022-11-20T09:33:31;99291.17;;;23.18;31.58
44313;BME280;38833;51.142;-0.974;2022-11-20T09:36:04;99294.64;;;23.24;31.46
44313;BME280;38833;51.142;-0.974;2022-11-20T09:38:38;99297.29;;;23.04;31.65
44313;BME280;38833;51.142;-0.974;2022-11-20T09:41:58;99300.03;;;23.74;31.09
44313;BME280;38833;51.142;-0.974;2022-11-20T09:44:48;99302.20;;;23.16;31.41
44313;BME280;38833;51.142;-0.974;2022-11-20T09:47:33;99306.27;;;23.12;31.42
44313;BME280;38833;51.142;-0.974;2022-11-20T09:50:22;99299.10;;;23.38;31.31
44313;BME280;38833;51.142;-0.974;2022-11-20T09:53:11;99296.72;;;23.13;31.32
44313;BME280;38833;51.142;-0.974;2022-11-20T09:55:46;99294.55;;;23.24;31.46
44313;BME280;38833;51.142;-0.974;2022-11-20T09:58:27;99289.17;;;23.17;31.20
44313;BME280;38833;51.142;-0.974;2022-11-20T10:01:10;99288.86;;;23.17;31.19
44313;BME280;38833;51.142;-0.974;2022-11-20T10:03:52;99290.44;;;23.42;30.86
44313;BME280;38833;51.142;-0.974;2022-11-20T10:06:30;99293.70;;;23.27;30.98
44313;BME280;38833;51.142;-0.974;2022-11-20T10:09:18;99297.15;;;23.09;31.17
44313;BME280;38833;51.142;-0.974;2022-11-20T10:12:04;99299.04;;;23.38;31.08
44313;BME280;38833;51.142;-0.974;2022-11-20T10:14:50;99299.17;;;23.28;30.87
44313;BME280;38833;51.142;-0.974;2022-11-20T10:17:40;99304.85;;;23.49;30.62
44313;BME280;38833;51.142;-0.974;2022-11-20T10:20:22;99307.56;;;23.57;30.51
44313;BME280;38833;51.142;-0.974;2022-11-20T10:23:19;99309.07;;;23.57;30.48
44313;BME280;38833;51.142;-0.974;2022-11-20T10:26:01;99312.31;;;24.34;30.10
44313;BME280;38833;51.142;-0.974;2022-11-20T10:28:42;99321.79;;;23.84;30.53
44313;BME280;38833;51.142;-0.974;2022-11-20T10:31:28;99323.82;;;23.45;31.05
44313;BME280;38833;51.142;-0.974;2022-11-20T10:34:06;99322.91;;;23.76;30.96
44313;BME280;38833;51.142;-0.974;2022-11-20T10:36:46;99319.34;;;23.72;30.93
44313;BME280;38833;51.142;-0.974;2022-11-20T10:39:29;99323.73;;;23.51;31.09
44313;BME280;38833;51.142;-0.974;2022-11-20T10:42:10;99321.65;;;24.06;30.73
44313;BME280;38833;51.142;-0.974;2022-11-20T10:44:49;99317.49;;;23.71;30.88
44313;BME280;38833;51.142;-0.974;2022-11-20T10:47:25;99313.65;;;23.88;30.93
44313;BME280;38833;51.142;-0.974;2022-11-20T10:50:03;99308.73;;;23.51;31.08
44313;BME280;38833;51.142;-0.974;2022-11-20T10:52:47;99311.48;;;23.73;30.83
44313;BME280;38833;51.142;-0.974;2022-11-20T10:55:30;99311.76;;;23.66;30.90
44313;BME280;38833;51.142;-0.974;2022-11-20T10:58:13;99313.78;;;23.55;31.03
44313;BME280;38833;51.142;-0.974;2022-11-20T11:01:02;99314.96;;;23.60;30.96
44313;BME280;38833;51.142;-0.974;2022-11-20T11:03:36;99314.94;;;23.74;30.80
44313;BME280;38833;51.142;-0.974;2022-11-20T11:06:17;99316.40;;;23.74;30.82
44313;BME280;38833;51.142;-0.974;2022-11-20T11:08:56;99317.76;;;23.70;30.83
44313;BME280;38833;51.142;-0.974;2022-11-20T11:11:33;99316.51;;;23.81;30.71
44313;BME280;38833;51.142;-0.974;2022-11-20T11:14:07;99309.03;;;23.59;31.21
44313;BME280;38833;51.142;-0.974;2022-11-20T11:16:50;99305.86;;;24.01;30.71
44313;BME280;38833;51.142;-0.974;2022-11-20T11:19:24;99303.75;;;24.14;29.57
44313;BME280;38833;51.142;-0.974;2022-11-20T11:21:58;99312.07;;;23.76;29.65
44313;BME280;38833;51.142;-0.974;2022-11-20T11:24:31;99303.08;;;24.33;29.67
44313;BME280;38833;51.142;-0.974;2022-11-20T11:27:12;99301.73;;;23.29;31.13
44313;BME280;38833;51.142;-0.974;2022-11-20T11:29:46;99303.98;;;24.18;29.62
44313;BME280;38833;51.142;-0.974;2022-11-20T11:32:21;99303.75;;;24.46;29.49
44313;BME280;38833;51.142;-0.974;2022-11-20T11:35:04;99307.50;;;23.68;30.45
44313;BME280;38833;51.142;-0.974;2022-11-20T11:37:38;99308.88;;;23.39;30.24
44313;BME280;38833;51.142;-0.974;2022-11-20T11:40:13;99311.61;;;23.48;30.23
44313;BME280;38833;51.142;-0.974;2022-11-20T11:42:52;99320.60;;;23.79;29.68
44313;BME280;38833;51.142;-0.974;2022-11-20T11:45:27;99316.71;;;23.78;29.78
44313;BME280;38833;51.142;-0.974;2022-11-20T11:48:03;99309.33;;;24.10;29.28
44313;BME280;38833;51.142;-0.974;2022-11-20T11:50:37;99306.14;;;24.26;29.26
44313;BME280;38833;51.142;-0.974;2022-11-20T11:53:14;99312.40;;;23.45;30.12
44313;BME280;38833;51.142;-0.974;2022-11-20T11:55:54;99308.08;;;24.02;29.49
44313;BME280;38833;51.142;-0.974;2022-11-20T11:58:40;99302.76;;;24.56;28.88
44313;BME280;38833;51.142;-0.974;2022-11-20T12:01:26;99302.75;;;24.11;29.13
44313;BME280;38833;51.142;-0.974;2022-11-20T12:04:05;99302.23;;;24.17;28.81
44313;BME280;38833;51.142;-0.974;2022-11-20T12:06:47;99302.13;;;24.05;29.06
44313;BME280;38833;51.142;-0.974;2022-11-20T12:09:26;99296.93;;;23.87;29.09
44313;BME280;38833;51.142;-0.974;2022-11-20T12:12:10;99294.34;;;24.00;28.94
44313;BME280;38833;51.142;-0.974;2022-11-20T12:14:47;99292.14;;;23.89;28.58
44313;BME280;38833;51.142;-0.974;2022-11-20T12:17:21;99285.34;;;24.04;28.61
44313;BME280;38833;51.142;-0.974;2022-11-20T12:19:55;99284.58;;;23.67;28.41
44313;BME280;38833;51.142;-0.974;2022-11-20T12:22:32;99294.53;;;23.65;28.53
44313;BME280;38833;51.142;-0.974;2022-11-20T12:25:12;99300.28;;;23.71;29.17
44313;BME280;38833;51.142;-0.974;2022-11-20T12:28:07;99304.15;;;23.69;28.67
44313;BME280;38833;51.142;-0.974;2022-11-20T12:30:52;99298.19;;;23.49;26.34
44313;BME280;38833;51.142;-0.974;2022-11-20T12:33:48;99290.44;;;23.49;27.52
44313;BME280;38833;51.142;-0.974;2022-11-20T12:36:33;99288.50;;;23.79;27.65
44313;BME280;38833;51.142;-0.974;2022-11-20T12:39:50;99282.17;;;23.60;27.88
44313;BME280;38833;51.142;-0.974;2022-11-20T12:42:34;99272.68;;;23.82;27.95
44313;BME280;38833;51.142;-0.974;2022-11-20T12:45:22;99282.90;;;23.82;27.95
44313;BME280;38833;51.142;-0.974;2022-11-20T12:49:16;99283.79;;;23.75;28.32
44313;BME280;38833;51.142;-0.974;2022-11-20T12:52:02;99290.79;;;23.51;28.04
44313;BME280;38833;51.142;-0.974;2022-11-20T12:54:50;99297.87;;;24.08;27.85
44313;BME280;38833;51.142;-0.974;2022-11-20T12:57:33;99292.02;;;23.98;27.68
44313;BME280;38833;51.142;-0.974;2022-11-20T13:00:14;99296.55;;;23.77;27.57
44313;BME280;38833;51.142;-0.974;2022-11-20T13:03:05;99290.96;;;23.92;27.65
44313;BME280;38833;51.142;-0.974;2022-11-20T13:05:51;99292.72;;;23.53;28.32
44313;BME280;38833;51.142;-0.974;2022-11-20T13:08:29;99294.40;;;23.73;28.37
44313;BME280;38833;51.142;-0.974;2022-11-20T13:11:12;99293.38;;;23.66;28.20
44313;BME280;38833;51.142;-0.974;2022-11-20T13:14:03;99297.04;;;23.93;27.98
44313;BME280;38833;51.142;-0.974;2022-11-20T13:16:46;99291.17;;;23.65;28.23
44313;BME280;38833;51.142;-0.974;2022-11-20T13:19:20;99289.33;;;23.47;27.89
44313;BME280;38833;51.142;-0.974;2022-11-20T13:21:54;99280.49;;;23.39;28.09
44313;BME280;38833;51.142;-0.974;2022-11-20T13:24:28;99273.01;;;23.51;28.24
44313;BME280;38833;51.142;-0.974;2022-11-20T13:27:16;99269.12;;;23.83;28.12
44313;BME280;38833;51.142;-0.974;2022-11-20T13:30:15;99265.29;;;23.62;28.10
44313;BME280;38833;51.142;-0.974;2022-11-20T13:32:51;99265.24;;;23.03;28.47
44313;BME280;38833;51.142;-0.974;2022-11-20T13:35:28;99255.38;;;23.40;28.10
44313;BME280;38833;51.142;-0.974;2022-11-20T13:38:06;99247.77;;;23.69;28.04